sensor_id;sensor_type;location;lat;lon;timestamp;pressure;altitude;pressure_sealevel;temperature;humidity
20909;BME280;10614;53.198;6.570;2022-10-17T00:00:27;101806.31;;;12.68;100.00
20909;BME280;10614;53.198;6.570;2022-10-17T00:02:29;101800.19;;;12.66;100.00
20909;BME280;10614;53.198;6.570;2022-10-17T00:04:30;101800.28;;;12.64;100.00
20909;BME280;10614;53.198;6.570;2022-10-17T00:06:33;101800.31;;;12.63;100.00
20909;BME280;10614;53.198;6.570;2022-10-17T00:08:35;101798.66;;;12.60;100.00
20909;BME280;10614;53.198;6.570;2022-10-17T00:10:38;101808.28;;;12.61;100.00
20909;BME280;10614;53.198;6.570;2022-10-17T00:12:39;101816.31;;;12.58;100.00
20909;BME280;10614;53.198;6.570;2022-10-17T00:14:41;101814.50;;;12.60;100.00
20909;BME280;10614;53.198;6.570;2022-10-17T00:16:43;101817.94;;;12.62;100.00
20909;BME280;10614;53.198;6.570;2022-10-17T00:18:44;101810.91;;;12.61;100.00
20909;BME280;10614;53.198;6.570;2022-10-17T00:20:46;101809.16;;;12.62;100.00
20909;BME280;10614;53.198;6.570;2022-10-17T00:22:49;101802.16;;;12.61;100.00
20909;BME280;10614;53.198;6.570;2022-10-17T00:24:51;101803.94;;;12.60;100.00
20909;BME280;10614;53.198;6.570;2022-10-17T00:26:52;101803.09;;;12.58;100.00
20909;BME280;10614;53.198;6.570;2022-10-17T00:28:54;101796.13;;;12.57;100.00
20909;BME280;10614;53.198;6.570;2022-10-17T00:30:57;101787.25;;;12.58;100.00
20909;BME280;10614;53.198;6.570;2022-10-17T00:32:58;101778.56;;;12.55;100.00
20909;BME280;10614;53.198;6.570;2022-10-17T00:35:00;101779.34;;;12.58;100.00
20909;BME280;10614;53.198;6.570;2022-10-17T00:37:02;101778.53;;;12.56;100.00
20909;BME280;10614;53.198;6.570;2022-10-17T00:39:05;101789.13;;;12.55;100.00
20909;BME280;10614;53.198;6.570;2022-10-17T00:41:07;101783.00;;;12.54;100.00
20909;BME280;10614;53.198;6.570;2022-10-17T00:43:14;101790.00;;;12.55;100.00
20909;BME280;10614;53.198;6.570;2022-10-17T00:45:21;101789.13;;;12.55;100.00
20909;BME280;10614;53.198;6.570;2022-10-17T00:47:23;101800.63;;;12.54;100.00
20909;BME280;10614;53.198;6.570;2022-10-17T00:49:28;101793.56;;;12.54;100.00
20909;BME280;10614;53.198;6.570;2022-10-17T00:51:34;101784.81;;;12.52;100.00
20909;BME280;10614;53.198;6.570;2022-10-17T00:53:38;101790.00;;;12.55;100.00
20909;BME280;10614;53.198;6.570;2022-10-17T00:55:46;101786.44;;;12.56;100.00
20909;BME280;10614;53.198;6.570;2022-10-17T00:57:49;101776.75;;;12.57;100.00
20909;BME280;10614;53.198;6.570;2022-10-17T00:59:54;101776.75;;;12.57;100.00
20909;BME280;10614;53.198;6.570;2022-10-17T01:02:00;101768.81;;;12.57;100.00
20909;BME280;10614;53.198;6.570;2022-10-17T01:04:02;101764.41;;;12.57;100.00
20909;BME280;10614;53.198;6.570;2022-10-17T01:06:04;101767.91;;;12.58;100.00
20909;BME280;10614;53.198;6.570;2022-10-17T01:08:06;101765.28;;;12.58;100.00
20909;BME280;10614;53.198;6.570;2022-10-17T01:10:09;101767.00;;;12.59;100.00
20909;BME280;10614;53.198;6.570;2022-10-17T01:12:18;101774.06;;;12.58;100.00
20909;BME280;10614;53.198;6.570;2022-10-17T01:14:26;101776.69;;;12.58;100.00
20909;BME280;10614;53.198;6.570;2022-10-17T01:16:37;101773.19;;;12.58;100.00
20909;BME280;10614;53.198;6.570;2022-10-17T01:18:48;101772.34;;;12.57;100.00
20909;BME280;10614;53.198;6.570;2022-10-17T01:21:08;101769.75;;;12.56;100.00
20909;BME280;10614;53.198;6.570;2022-10-17T01:23:26;101773.25;;;12.56;100.00
20909;BME280;10614;53.198;6.570;2022-10-17T01:25:41;101767.13;;;12.54;100.00
20909;BME280;10614;53.198;6.570;2022-10-17T01:28:00;101760.84;;;12.58;100.00
20909;BME280;10614;53.198;6.570;2022-10-17T01:32:53;101745.00;;;12.58;100.00
20909;BME280;10614;53.198;6.570;2022-10-17T01:34:59;101746.72;;;12.59;100.00
20909;BME280;10614;53.198;6.570;2022-10-17T01:37:05;101737.94;;;12.59;100.00
20909;BME280;10614;53.198;6.570;2022-10-17T01:39:16;101740.53;;;12.60;100.00
20909;BME280;10614;53.198;6.570;2022-10-17T01:41:26;101729.19;;;12.57;100.00
20909;BME280;10614;53.198;6.570;2022-10-17T01:43:35;101726.41;;;12.61;100.00
20909;BME280;10614;53.198;6.570;2022-10-17T01:45:42;101724.69;;;12.60;100.00
20909;BME280;10614;53.198;6.570;2022-10-17T01:47:50;101732.50;;;12.63;100.00
20909;BME280;10614;53.198;6.570;2022-10-17T01:49:55;101714.88;;;12.64;100.00
20909;BME280;10614;53.198;6.570;2022-10-17T01:52:01;101711.31;;;12.65;100.00
20909;BME280;10614;53.198;6.570;2022-10-17T01:54:09;101712.19;;;12.65;100.00
20909;BME280;10614;53.198;6.570;2022-10-17T01:56:13;101705.19;;;12.64;100.00
20909;BME280;10614;53.198;6.570;2022-10-17T01:58:21;101699.84;;;12.66;100.00
20909;BME280;10614;53.198;6.570;2022-10-17T02:00:25;101706.91;;;12.65;100.00
20909;BME280;10614;53.198;6.570;2022-10-17T02:02:28;101710.34;;;12.67;100.00
20909;BME280;10614;53.198;6.570;2022-10-17T02:04:33;101705.94;;;12.68;100.00
20909;BME280;10614;53.198;6.570;2022-10-17T02:06:35;101698.00;;;12.68;100.00
20909;BME280;10614;53.198;6.570;2022-10-17T02:08:41;101695.34;;;12.68;100.00
20909;BME280;10614;53.198;6.570;2022-10-17T02:10:48;101694.38;;;12.71;100.00
20909;BME280;10614;53.198;6.570;2022-10-17T02:12:53;101684.75;;;12.70;100.00
20909;BME280;10614;53.198;6.570;2022-10-17T02:15:07;101676.81;;;12.70;100.00
20909;BME280;10614;53.198;6.570;2022-10-17T02:17:17;101673.25;;;12.71;100.00
20909;BME280;10614;53.198;6.570;2022-10-17T02:19:33;101663.63;;;12.70;100.00
20909;BME280;10614;53.198;6.570;2022-10-17T02:21:45;101664.50;;;12.68;100.00
20909;BME280;10614;53.198;6.570;2022-10-17T02:23:54;101646.97;;;12.67;100.00
20909;BME280;10614;53.198;6.570;2022-10-17T02:26:04;101644.31;;;12.67;100.00
20909;BME280;10614;53.198;6.570;2022-10-17T02:28:15;101643.50;;;12.65;100.00
20909;BME280;10614;53.198;6.570;2022-10-17T02:30:27;101647.00;;;12.66;100.00
20909;BME280;10614;53.198;6.570;2022-10-17T02:32:35;101641.78;;;12.64;100.00
20909;BME280;10614;53.198;6.570;2022-10-17T02:34:43;101641.78;;;12.64;100.00
20909;BME280;10614;53.198;6.570;2022-10-17T02:36:50;101639.06;;;12.66;100.00
20909;BME280;10614;53.198;6.570;2022-10-17T02:38:53;101638.22;;;12.65;100.00
20909;BME280;10614;53.198;6.570;2022-10-17T02:40:55;101636.44;;;12.66;100.00
20909;BME280;10614;53.198;6.570;2022-10-17T02:42:58;101638.22;;;12.65;100.00
20909;BME280;10614;53.198;6.570;2022-10-17T02:45:01;101638.22;;;12.65;100.00
20909;BME280;10614;53.198;6.570;2022-10-17T02:47:09;101639.19;;;12.63;100.00
20909;BME280;10614;53.198;6.570;2022-10-17T02:49:15;101632.97;;;12.64;100.00
20909;BME280;10614;53.198;6.570;2022-10-17T02:51:26;101634.84;;;12.62;100.00
20909;BME280;10614;53.198;6.570;2022-10-17T02:53:32;101629.44;;;12.65;100.00
20909;BME280;10614;53.198;6.570;2022-10-17T02:55:41;101631.22;;;12.64;100.00
20909;BME280;10614;53.198;6.570;2022-10-17T02:57:45;101633.91;;;12.63;100.00
20909;BME280;10614;53.198;6.570;2022-10-17T02:59:49;101633.91;;;12.63;100.00
20909;BME280;10614;53.198;6.570;2022-10-17T03:01:51;101630.41;;;12.62;100.00
20909;BME280;10614;53.198;6.570;2022-10-17T03:04:03;101631.31;;;12.61;100.00
20909;BME280;10614;53.198;6.570;2022-10-17T03:06:05;101627.81;;;12.61;100.00
20909;BME280;10614;53.198;6.570;2022-10-17T03:08:08;101616.44;;;12.59;100.00
20909;BME280;10614;53.198;6.570;2022-10-17T03:10:11;101633.06;;;12.62;100.00
20909;BME280;10614;53.198;6.570;2022-10-17T03:12:12;101619.09;;;12.59;100.00
20909;BME280;10614;53.198;6.570;2022-10-17T03:14:14;101615.53;;;12.60;100.00
20909;BME280;10614;53.198;6.570;2022-10-17T03:16:16;101610.31;;;12.58;100.00
20909;BME280;10614;53.198;6.570;2022-10-17T03:18:17;101612.03;;;12.59;100.00
20909;BME280;10614;53.198;6.570;2022-10-17T03:20:19;101609.38;;;12.59;100.00
20909;BME280;10614;53.198;6.570;2022-10-17T03:22:21;101605.03;;;12.58;100.00
20909;BME280;10614;53.198;6.570;2022-10-17T03:24:24;101606.00;;;12.56;100.00
20909;BME280;10614;53.198;6.570;2022-10-17T03:26:25;101604.16;;;12.58;100.00
20909;BME280;10614;53.198;6.570;2022-10-17T03:28:28;101599.75;;;12.58;100.00
20909;BME280;10614;53.198;6.570;2022-10-17T03:30:30;101604.16;;;12.58;100.00
20909;BME280;10614;53.198;6.570;2022-10-17T03:32:33;101593.66;;;12.56;100.00
20909;BME280;10614;53.198;6.570;2022-10-17T03:34:34;101584.88;;;12.56;100.00
20909;BME280;10614;53.198;6.570;2022-10-17T03:36:36;101583.09;;;12.56;100.00
20909;BME280;10614;53.198;6.570;2022-10-17T03:38:38;101589.31;;;12.55;100.00
20909;BME280;10614;53.198;6.570;2022-10-17T03:40:41;101585.78;;;12.55;100.00
20909;BME280;10614;53.198;6.570;2022-10-17T03:42:43;101588.41;;;12.55;100.00
20909;BME280;10614;53.198;6.570;2022-10-17T03:44:44;101590.28;;;12.53;100.00
20909;BME280;10614;53.198;6.570;2022-10-17T03:46:46;101586.75;;;12.52;100.00
20909;BME280;10614;53.198;6.570;2022-10-17T03:48:48;101599.09;;;12.52;100.00
20909;BME280;10614;53.198;6.570;2022-10-17T03:50:49;101591.22;;;12.50;100.00
20909;BME280;10614;53.198;6.570;2022-10-17T03:52:51;101598.28;;;12.50;100.00
20909;BME280;10614;53.198;6.570;2022-10-17T03:54:52;101603.56;;;12.50;100.00
20909;BME280;10614;53.198;6.570;2022-10-17T03:56:55;101604.44;;;12.50;100.00
20909;BME280;10614;53.198;6.570;2022-10-17T03:58:57;101596.59;;;12.49;100.00
20909;BME280;10614;53.198;6.570;2022-10-17T04:01:02;101595.66;;;12.50;100.00
20909;BME280;10614;53.198;6.570;2022-10-17T04:03:04;101599.25;;;12.47;100.00
20909;BME280;10614;53.198;6.570;2022-10-17T04:05:06;101594.75;;;12.51;100.00
20909;BME280;10614;53.198;6.570;2022-10-17T04:07:08;101583.31;;;12.50;100.00
20909;BME280;10614;53.198;6.570;2022-10-17T04:09:10;101571.03;;;12.49;100.00
20909;BME280;10614;53.198;6.570;2022-10-17T04:11:14;101566.56;;;12.51;100.00
20909;BME280;10614;53.198;6.570;2022-10-17T04:13:18;101566.56;;;12.51;100.00
20909;BME280;10614;53.198;6.570;2022-10-17T04:15:19;101581.53;;;12.51;100.00
20909;BME280;10614;53.198;6.570;2022-10-17T04:17:21;101584.19;;;12.51;100.00
20909;BME280;10614;53.198;6.570;2022-10-17T04:19:23;101579.75;;;12.51;100.00
20909;BME280;10614;53.198;6.570;2022-10-17T04:21:26;101591.19;;;12.52;100.00
20909;BME280;10614;53.198;6.570;2022-10-17T04:23:28;101594.69;;;12.52;100.00
20909;BME280;10614;53.198;6.570;2022-10-17T04:25:30;101592.97;;;12.51;100.00
20909;BME280;10614;53.198;6.570;2022-10-17T04:27:31;101593.78;;;12.53;100.00
20909;BME280;10614;53.198;6.570;2022-10-17T04:29:34;101588.50;;;12.53;100.00
20909;BME280;10614;53.198;6.570;2022-10-17T04:31:36;101591.13;;;12.53;100.00
20909;BME280;10614;53.198;6.570;2022-10-17T04:33:38;101582.28;;;12.54;100.00
20909;BME280;10614;53.198;6.570;2022-10-17T04:35:40;101589.34;;;12.54;100.00
20909;BME280;10614;53.198;6.570;2022-10-17T04:37:41;101584.03;;;12.55;100.00
20909;BME280;10614;53.198;6.570;2022-10-17T04:39:43;101577.81;;;12.56;100.00
20909;BME280;10614;53.198;6.570;2022-10-17T04:41:45;101578.75;;;12.55;100.00
20909;BME280;10614;53.198;6.570;2022-10-17T04:43:46;101583.91;;;12.58;100.00
20909;BME280;10614;53.198;6.570;2022-10-17T04:45:49;101581.22;;;12.60;100.00
20909;BME280;10614;53.198;6.570;2022-10-17T04:47:51;101574.19;;;12.59;100.00
20909;BME280;10614;53.198;6.570;2022-10-17T04:49:53;101582.91;;;12.61;100.00
20909;BME280;10614;53.198;6.570;2022-10-17T04:51:54;101601.38;;;12.62;100.00
20909;BME280;10614;53.198;6.570;2022-10-17T04:53:56;101602.25;;;12.61;100.00
20909;BME280;10614;53.198;6.570;2022-10-17T04:55:58;101606.66;;;12.62;100.00
20909;BME280;10614;53.198;6.570;2022-10-17T04:58:00;101603.94;;;12.64;100.00
20909;BME280;10614;53.198;6.570;2022-10-17T05:00:03;101598.66;;;12.64;100.00
20909;BME280;10614;53.198;6.570;2022-10-17T05:02:06;101588.91;;;12.66;100.00
20909;BME280;10614;53.198;6.570;2022-10-17T05:04:07;101587.09;;;12.66;100.00
20909;BME280;10614;53.198;6.570;2022-10-17T05:06:11;101579.19;;;12.66;100.00
20909;BME280;10614;53.198;6.570;2022-10-17T05:08:12;101573.81;;;12.70;100.00
20909;BME280;10614;53.198;6.570;2022-10-17T05:10:14;101571.16;;;12.70;100.00
20909;BME280;10614;53.198;6.570;2022-10-17T05:12:16;101589.56;;;12.71;100.00
20909;BME280;10614;53.198;6.570;2022-10-17T05:14:17;101583.41;;;12.72;100.00
20909;BME280;10614;53.198;6.570;2022-10-17T05:16:19;101564.84;;;12.74;100.00
20909;BME280;10614;53.198;6.570;2022-10-17T05:18:23;101583.28;;;12.75;100.00
20909;BME280;10614;53.198;6.570;2022-10-17T05:20:25;101578.84;;;12.76;100.00
20909;BME280;10614;53.198;6.570;2022-10-17T05:22:26;101580.59;;;12.77;100.00
20909;BME280;10614;53.198;6.570;2022-10-17T05:24:28;101580.72;;;12.74;100.00
20909;BME280;10614;53.198;6.570;2022-10-17T05:26:30;101591.09;;;12.78;100.00
20909;BME280;10614;53.198;6.570;2022-10-17T05:28:32;101575.25;;;12.78;100.00
20909;BME280;10614;53.198;6.570;2022-10-17T05:30:34;101576.97;;;12.79;100.00
20909;BME280;10614;53.198;6.570;2022-10-17T05:32:36;101587.47;;;12.81;100.00
20909;BME280;10614;53.198;6.570;2022-10-17T05:34:39;101572.47;;;12.81;100.00
20909;BME280;10614;53.198;6.570;2022-10-17T05:36:41;101563.63;;;12.82;100.00
20909;BME280;10614;53.198;6.570;2022-10-17T05:38:43;101568.00;;;12.83;100.00
20909;BME280;10614;53.198;6.570;2022-10-17T05:40:48;101558.28;;;12.84;100.00
20909;BME280;10614;53.198;6.570;2022-10-17T05:42:50;101560.94;;;12.84;100.00
20909;BME280;10614;53.198;6.570;2022-10-17T05:44:52;101556.47;;;12.86;100.00
20909;BME280;10614;53.198;6.570;2022-10-17T05:46:53;101558.16;;;12.87;100.00
20909;BME280;10614;53.198;6.570;2022-10-17T05:48:55;101556.47;;;12.86;100.00
20909;BME280;10614;53.198;6.570;2022-10-17T05:50:59;101564.31;;;12.87;100.00
20909;BME280;10614;53.198;6.570;2022-10-17T05:53:01;101571.34;;;12.88;100.00
20909;BME280;10614;53.198;6.570;2022-10-17T05:55:04;101578.31;;;12.89;100.00
20909;BME280;10614;53.198;6.570;2022-10-17T05:57:06;101582.72;;;12.91;100.00
20909;BME280;10614;53.198;6.570;2022-10-17T05:59:07;101580.88;;;12.93;100.00
20909;BME280;10614;53.198;6.570;2022-10-17T06:01:09;101556.22;;;12.92;100.00
20909;BME280;10614;53.198;6.570;2022-10-17T06:03:12;101577.25;;;12.95;100.00
20909;BME280;10614;53.198;6.570;2022-10-17T06:05:14;101579.81;;;12.97;100.00
20909;BME280;10614;53.198;6.570;2022-10-17T06:07:17;101580.69;;;12.97;100.00
20909;BME280;10614;53.198;6.570;2022-10-17T06:09:19;101577.13;;;12.98;100.00
20909;BME280;10614;53.198;6.570;2022-10-17T06:11:20;101576.41;;;12.95;100.00
20909;BME280;10614;53.198;6.570;2022-10-17T06:13:22;101581.44;;;13.01;100.00
20909;BME280;10614;53.198;6.570;2022-10-17T06:15:24;101578.72;;;13.02;100.00
20909;BME280;10614;53.198;6.570;2022-10-17T06:17:25;101584.03;;;13.02;100.00
20909;BME280;10614;53.198;6.570;2022-10-17T06:19:28;101583.09;;;13.03;100.00
20909;BME280;10614;53.198;6.570;2022-10-17T06:21:30;101588.31;;;13.05;100.00
20909;BME280;10614;53.198;6.570;2022-10-17T06:23:37;101590.03;;;13.06;100.00
20909;BME280;10614;53.198;6.570;2022-10-17T06:25:39;101590.84;;;13.08;100.00
20909;BME280;10614;53.198;6.570;2022-10-17T06:27:41;101596.88;;;13.12;100.00
20909;BME280;10614;53.198;6.570;2022-10-17T06:29:42;101581.88;;;13.12;100.00
20909;BME280;10614;53.198;6.570;2022-10-17T06:31:44;101585.31;;;13.14;100.00
20909;BME280;10614;53.198;6.570;2022-10-17T06:33:46;101593.19;;;13.16;100.00
20909;BME280;10614;53.198;6.570;2022-10-17T06:35:51;101599.28;;;13.18;100.00
20909;BME280;10614;53.198;6.570;2022-10-17T06:37:53;101601.00;;;13.19;100.00
20909;BME280;10614;53.198;6.570;2022-10-17T06:39:56;101612.44;;;13.19;100.00
20909;BME280;10614;53.198;6.570;2022-10-17T06:41:58;101615.03;;;13.21;100.00
20909;BME280;10614;53.198;6.570;2022-10-17T06:44:00;101620.31;;;13.21;100.00
20909;BME280;10614;53.198;6.570;2022-10-17T06:46:08;101620.19;;;13.24;100.00
20909;BME280;10614;53.198;6.570;2022-10-17T06:48:09;101628.97;;;13.24;100.00
20909;BME280;10614;53.198;6.570;2022-10-17T06:50:11;101641.22;;;13.27;100.00
20909;BME280;10614;53.198;6.570;2022-10-17T06:52:13;101633.59;;;13.19;100.00
20909;BME280;10614;53.198;6.570;2022-10-17T06:54:16;101639.41;;;13.29;100.00
20909;BME280;10614;53.198;6.570;2022-10-17T06:56:19;101642.00;;;13.30;100.00
20909;BME280;10614;53.198;6.570;2022-10-17T06:58:21;101620.84;;;13.30;100.00
20909;BME280;10614;53.198;6.570;2022-10-17T07:00:22;101616.44;;;13.31;100.00
20909;BME280;10614;53.198;6.570;2022-10-17T07:02:25;101625.13;;;13.35;100.00
20909;BME280;10614;53.198;6.570;2022-10-17T07:04:27;101632.06;;;13.37;100.00
20909;BME280;10614;53.198;6.570;2022-10-17T07:06:29;101630.22;;;13.39;100.00
20909;BME280;10614;53.198;6.570;2022-10-17T07:08:31;101620.41;;;13.41;100.00
20909;BME280;10614;53.198;6.570;2022-10-17T07:10:33;101625.59;;;13.44;100.00
20909;BME280;10614;53.198;6.570;2022-10-17T07:12:38;101627.31;;;13.45;100.00
20909;BME280;10614;53.198;6.570;2022-10-17T07:14:40;101627.25;;;13.47;100.00
20909;BME280;10614;53.198;6.570;2022-10-17T07:16:42;101630.72;;;13.49;100.00
20909;BME280;10614;53.198;6.570;2022-10-17T07:18:47;101636.84;;;13.49;100.00
20909;BME280;10614;53.198;6.570;2022-10-17T07:20:52;101632.28;;;13.53;100.00
20909;BME280;10614;53.198;6.570;2022-10-17T07:22:54;101637.47;;;13.56;100.00
20909;BME280;10614;53.198;6.570;2022-10-17T07:24:55;101647.06;;;13.59;100.00
20909;BME280;10614;53.198;6.570;2022-10-17T07:26:57;101646.13;;;13.60;100.00
20909;BME280;10614;53.198;6.570;2022-10-17T07:29:00;101643.44;;;13.61;100.00
20909;BME280;10614;53.198;6.570;2022-10-17T07:31:03;101642.47;;;13.64;100.00
20909;BME280;10614;53.198;6.570;2022-10-17T07:33:05;101649.41;;;13.66;100.00
20909;BME280;10614;53.198;6.570;2022-10-17T07:35:07;101645.84;;;13.67;100.00
20909;BME280;10614;53.198;6.570;2022-10-17T07:37:09;101645.59;;;13.73;100.00
20909;BME280;10614;53.198;6.570;2022-10-17T07:39:11;101644.59;;;13.76;100.00
20909;BME280;10614;53.198;6.570;2022-10-17T07:41:13;101652.44;;;13.79;100.00
20909;BME280;10614;53.198;6.570;2022-10-17T07:43:14;101654.00;;;13.83;100.00
20909;BME280;10614;53.198;6.570;2022-10-17T07:45:17;101655.66;;;13.86;100.00
20909;BME280;10614;53.198;6.570;2022-10-17T07:47:19;101656.47;;;13.88;100.00
20909;BME280;10614;53.198;6.570;2022-10-17T07:49:21;101671.38;;;13.90;100.00
20909;BME280;10614;53.198;6.570;2022-10-17T07:51:22;101665.97;;;13.93;100.00
20909;BME280;10614;53.198;6.570;2022-10-17T07:53:24;101675.63;;;13.94;100.00
20909;BME280;10614;53.198;6.570;2022-10-17T07:55:25;101666.78;;;13.96;100.00
20909;BME280;10614;53.198;6.570;2022-10-17T07:57:27;101670.13;;;13.99;100.00
20909;BME280;10614;53.198;6.570;2022-10-17T07:59:29;101671.88;;;14.00;100.00
20909;BME280;10614;53.198;6.570;2022-10-17T08:01:32;101669.16;;;14.02;100.00
20909;BME280;10614;53.198;6.570;2022-10-17T08:03:33;101684.97;;;14.03;100.00
20909;BME280;10614;53.198;6.570;2022-10-17T08:05:35;101690.09;;;14.08;100.00
20909;BME280;10614;53.198;6.570;2022-10-17T08:07:37;101689.91;;;14.12;100.00
20909;BME280;10614;53.198;6.570;2022-10-17T08:09:39;101687.97;;;14.16;100.00
20909;BME280;10614;53.198;6.570;2022-10-17T08:11:41;101687.78;;;14.21;100.00
20909;BME280;10614;53.198;6.570;2022-10-17T08:13:43;101693.88;;;14.23;100.00
20909;BME280;10614;53.198;6.570;2022-10-17T08:15:47;101696.19;;;14.30;100.00
20909;BME280;10614;53.198;6.570;2022-10-17T08:17:51;101698.72;;;14.33;100.00
20909;BME280;10614;53.198;6.570;2022-10-17T08:19:54;101686.19;;;14.37;100.00
20909;BME280;10614;53.198;6.570;2022-10-17T08:21:56;101698.53;;;14.38;100.00
20909;BME280;10614;53.198;6.570;2022-10-17T08:23:59;101701.78;;;14.45;100.00
20909;BME280;10614;53.198;6.570;2022-10-17T08:26:04;101693.66;;;14.49;100.00
20909;BME280;10614;53.198;6.570;2022-10-17T08:28:05;101688.09;;;14.55;100.00
20909;BME280;10614;53.198;6.570;2022-10-17T08:30:08;101688.03;;;14.57;100.00
20909;BME280;10614;53.198;6.570;2022-10-17T08:32:10;101678.06;;;14.64;100.00
20909;BME280;10614;53.198;6.570;2022-10-17T08:34:13;101672.66;;;14.65;100.00
20909;BME280;10614;53.198;6.570;2022-10-17T08:36:17;101671.66;;;14.68;100.00
20909;BME280;10614;53.198;6.570;2022-10-17T08:38:19;101669.75;;;14.71;100.00
20909;BME280;10614;53.198;6.570;2022-10-17T08:40:23;101673.06;;;14.76;100.00
20909;BME280;10614;53.198;6.570;2022-10-17T08:42:37;101675.56;;;14.80;100.00
20909;BME280;10614;53.198;6.570;2022-10-17T08:44:48;101683.41;;;14.83;100.00
20909;BME280;10614;53.198;6.570;2022-10-17T08:46:57;101678.00;;;14.84;100.00
20909;BME280;10614;53.198;6.570;2022-10-17T08:49:01;101686.69;;;14.88;100.00
20909;BME280;10614;53.198;6.570;2022-10-17T08:51:10;101678.53;;;14.92;100.00
20909;BME280;10614;53.198;6.570;2022-10-17T08:53:18;101688.09;;;14.96;100.00
20909;BME280;10614;53.198;6.570;2022-10-17T08:55:27;101700.41;;;14.97;100.00
20909;BME280;10614;53.198;6.570;2022-10-17T08:57:30;101704.69;;;15.00;100.00
20909;BME280;10614;53.198;6.570;2022-10-17T08:59:31;101700.13;;;15.04;100.00
20909;BME280;10614;53.198;6.570;2022-10-17T09:01:38;101725.59;;;15.08;100.00
20909;BME280;10614;53.198;6.570;2022-10-17T09:03:51;101726.28;;;15.11;100.00
20909;BME280;10614;53.198;6.570;2022-10-17T09:06:10;101727.94;;;15.14;100.00
20909;BME280;10614;53.198;6.570;2022-10-17T09:08:31;101717.19;;;15.17;100.00
20909;BME280;10614;53.198;6.570;2022-10-17T09:10:45;101712.69;;;15.19;100.00
20909;BME280;10614;53.198;6.570;2022-10-17T09:13:02;101755.91;;;15.21;100.00
20909;BME280;10614;53.198;6.570;2022-10-17T09:15:30;101764.50;;;15.26;100.00
20909;BME280;10614;53.198;6.570;2022-10-17T09:17:41;101814.81;;;15.29;100.00
20909;BME280;10614;53.198;6.570;2022-10-17T09:19:56;101819.09;;;15.32;100.00
20909;BME280;10614;53.198;6.570;2022-10-17T09:22:04;101824.25;;;15.35;100.00
20909;BME280;10614;53.198;6.570;2022-10-17T09:24:12;101838.28;;;15.38;100.00
20909;BME280;10614;53.198;6.570;2022-10-17T09:26:16;101833.75;;;15.40;100.00
20909;BME280;10614;53.198;6.570;2022-10-17T09:28:20;101834.47;;;15.44;100.00
20909;BME280;10614;53.198;6.570;2022-10-17T09:30:33;101835.13;;;15.49;100.00
20909;BME280;10614;53.198;6.570;2022-10-17T09:32:36;101834.06;;;15.53;100.00
20909;BME280;10614;53.198;6.570;2022-10-17T09:34:38;101838.16;;;15.60;100.00
20909;BME280;10614;53.198;6.570;2022-10-17T09:36:40;101856.59;;;15.63;100.00
20909;BME280;10614;53.198;6.570;2022-10-17T09:38:49;101860.72;;;15.71;100.00
20909;BME280;10614;53.198;6.570;2022-10-17T09:40:54;101865.91;;;15.74;100.00
20909;BME280;10614;53.198;6.570;2022-10-17T09:42:56;101872.78;;;15.78;100.00
20909;BME280;10614;53.198;6.570;2022-10-17T09:45:10;101864.69;;;15.81;100.00
20909;BME280;10614;53.198;6.570;2022-10-17T09:47:21;101879.56;;;15.85;100.00
20909;BME280;10614;53.198;6.570;2022-10-17T09:49:31;101873.25;;;15.88;100.00
20909;BME280;10614;53.198;6.570;2022-10-17T09:51:32;101868.59;;;15.93;100.00
20909;BME280;10614;53.198;6.570;2022-10-17T09:53:36;101861.41;;;15.95;100.00
20909;BME280;10614;53.198;6.570;2022-10-17T09:55:42;101859.41;;;16.00;100.00
20909;BME280;10614;53.198;6.570;2022-10-17T09:57:52;101873.53;;;16.00;100.00
20909;BME280;10614;53.198;6.570;2022-10-17T09:59:57;101869.97;;;16.01;100.00
20909;BME280;10614;53.198;6.570;2022-10-17T10:02:07;101862.06;;;16.00;100.00
20909;BME280;10614;53.198;6.570;2022-10-17T10:04:11;101864.78;;;15.98;100.00
20909;BME280;10614;53.198;6.570;2022-10-17T10:06:14;101856.75;;;16.00;100.00
20909;BME280;10614;53.198;6.570;2022-10-17T10:08:17;101864.72;;;16.00;100.00
20909;BME280;10614;53.198;6.570;2022-10-17T10:10:25;101860.31;;;15.99;100.00
20909;BME280;10614;53.198;6.570;2022-10-17T10:12:30;101868.28;;;15.99;100.00
20909;BME280;10614;53.198;6.570;2022-10-17T10:14:34;101867.53;;;15.97;100.00
20909;BME280;10614;53.198;6.570;2022-10-17T10:16:46;101863.97;;;15.96;100.00
20909;BME280;10614;53.198;6.570;2022-10-17T10:18:50;101874.69;;;15.95;100.00
20909;BME280;10614;53.198;6.570;2022-10-17T10:21:03;101864.13;;;15.93;100.00
20909;BME280;10614;53.198;6.570;2022-10-17T10:23:16;101869.50;;;15.92;100.00
20909;BME280;10614;53.198;6.570;2022-10-17T10:25:20;101866.94;;;15.90;100.00
20909;BME280;10614;53.198;6.570;2022-10-17T10:27:29;101865.19;;;15.89;100.00
20909;BME280;10614;53.198;6.570;2022-10-17T10:29:33;101855.66;;;15.85;100.00
20909;BME280;10614;53.198;6.570;2022-10-17T10:31:37;101858.31;;;15.85;100.00
20909;BME280;10614;53.198;6.570;2022-10-17T10:33:41;101858.31;;;15.85;100.00
20909;BME280;10614;53.198;6.570;2022-10-17T10:35:51;101838.16;;;15.81;100.00
20909;BME280;10614;53.198;6.570;2022-10-17T10:37:56;101831.91;;;15.82;100.00
20909;BME280;10614;53.198;6.570;2022-10-17T10:40:01;101835.41;;;15.82;100.00
20909;BME280;10614;53.198;6.570;2022-10-17T10:42:07;101839.00;;;15.81;100.00
20909;BME280;10614;53.198;6.570;2022-10-17T10:44:13;101846.03;;;15.82;100.00